Mahaffey, Pennsylvania
Current Conditions -  °F | °C
As of 3:23 AM on Friday 28 Nov 2014 (Local Time) from KFIG Reporting Station
Broken Clouds Broken Clouds  
Wind Chill: 18°   Ceiling: 8000
Heat Index: 26°   Visibility: 10mi
Dew Point: 18°   Wind: 8mph
Humidity: 71%   Direction: 310°NW
Pressure: 30.14"   Gusts: 17mph
Location:  40.87°N, 78.72°W
Report Text: KFIG 280823Z AUTO 31007G15KT 10SM SCT026 BKN080 M03/M08 A3014 RMK AO2 T10331078
Loading
Personal Weather Stations






























Interactive Weather Map New forecast layout! Learn more

10-Day Weather Forecast

Advertisements
Track Severe Weather on mobile